27°C Temp
20°C Dewpoint
66% Humidity
Temperature
23 KM/H
14 MPH
12 KTS
270°
Due West

Wind Speed
Mostly Scattered
Clouds
Pressure 1012.92 (hPa) - 29.91 (in)
Visibility 6.2 (mi) - 10.0 (km)

Current Conditions
LIRP
Location Pisa 50(km)
Metar :LIRP 291145Z 27012KT 9999 SCT025 27/20 Q1013 NOSIG
Wed 29th June 12:45 pm

Airport
  Metar Aviation API Data Provided by https://www.checkwx.com/ PHP scripts by weather34.com ©2022